createdAt,value
2018-11-25T00:01:41.450Z,101423.13
2018-11-25T00:04:09.179Z,101416.56
2018-11-25T00:06:36.917Z,101418.77
2018-11-25T00:09:07.082Z,101411.46
2018-11-25T00:11:34.810Z,101415.95
2018-11-25T00:14:02.751Z,101420.63
2018-11-25T00:16:30.565Z,101415.08
2018-11-25T00:18:58.314Z,101416.00
2018-11-25T00:21:26.038Z,101418.89
2018-11-25T00:23:53.735Z,101418.98
2018-11-25T00:26:21.497Z,101413.59
2018-11-25T00:28:49.277Z,101416.50
2018-11-25T00:31:17.053Z,101414.05
2018-11-25T00:33:44.761Z,101407.69
2018-11-25T00:36:12.535Z,101401.25
2018-11-25T00:38:40.262Z,101399.40
2018-11-25T00:41:07.985Z,101397.61
2018-11-25T00:43:35.719Z,101397.57
2018-11-25T00:46:03.522Z,101392.84
2018-11-25T00:48:31.249Z,101397.14
2018-11-25T00:50:58.966Z,101409.73
2018-11-25T00:53:26.708Z,101411.18
2018-11-25T00:55:54.447Z,101406.58
2018-11-25T00:58:22.181Z,101400.59
2018-11-25T01:00:49.968Z,101404.69
2018-11-25T01:03:17.695Z,101399.40
2018-11-25T01:05:45.442Z,101397.62
2018-11-25T01:08:13.188Z,101398.78
2018-11-25T01:10:41.013Z,101400.70
2018-11-25T01:13:08.720Z,101395.92
2018-11-25T01:15:36.406Z,101394.16
2018-11-25T01:18:04.165Z,101395.84
2018-11-25T01:20:31.990Z,101393.86
2018-11-25T01:22:59.701Z,101400.23
2018-11-25T01:25:27.474Z,101402.61
2018-11-25T01:27:55.299Z,101407.09
2018-11-25T01:30:23.102Z,101407.06
2018-11-25T01:32:50.833Z,101407.97
2018-11-25T01:35:18.585Z,101404.00
2018-11-25T01:37:46.308Z,101406.17
2018-11-25T01:40:15.067Z,101406.87
2018-11-25T01:42:42.929Z,101406.13
2018-11-25T01:45:14.525Z,101410.50
2018-11-25T01:47:42.302Z,101408.73
2018-11-25T01:50:12.293Z,101415.61
2018-11-25T01:52:40.038Z,101411.88
2018-11-25T01:55:09.430Z,101411.44
2018-11-25T01:57:37.182Z,101415.27
2018-11-25T02:00:11.598Z,101414.95
2018-11-25T02:02:39.367Z,101423.46
2018-11-25T02:05:07.200Z,101417.15
2018-11-25T02:07:35.727Z,101417.94
2018-11-25T02:10:04.905Z,101423.11
2018-11-25T02:12:32.675Z,101420.06
2018-11-25T02:15:00.466Z,101422.52
2018-11-25T02:17:28.275Z,101421.03
2018-11-25T02:19:56.022Z,101422.84
2018-11-25T02:22:23.714Z,101418.56
2018-11-25T02:24:51.444Z,101419.41
2018-11-25T02:27:19.188Z,101415.77
2018-11-25T02:29:46.975Z,101416.90
2018-11-25T02:32:14.770Z,101423.58
2018-11-25T02:34:42.505Z,101417.65
2018-11-25T02:37:10.240Z,101417.02
2018-11-25T02:39:37.961Z,101419.22
2018-11-25T02:42:05.791Z,101410.45
2018-11-25T02:44:34.187Z,101410.31
2018-11-25T02:47:01.932Z,101407.35
2018-11-25T02:49:29.759Z,101408.67
2018-11-25T02:51:57.513Z,101414.36
2018-11-25T02:54:25.315Z,101404.61
2018-11-25T02:56:53.059Z,101404.77
2018-11-25T02:59:20.829Z,101409.23
2018-11-25T03:01:48.517Z,101407.92
2018-11-25T03:04:16.258Z,101403.16
2018-11-25T03:06:43.974Z,101400.49
2018-11-25T03:09:11.737Z,101402.50
2018-11-25T03:11:39.480Z,101400.25
2018-11-25T03:14:07.281Z,101400.76
2018-11-25T03:16:35.027Z,101401.50
2018-11-25T03:19:02.774Z,101404.37
2018-11-25T03:21:30.490Z,101398.03
2018-11-25T03:23:58.319Z,101399.30
2018-11-25T03:26:26.037Z,101401.95
2018-11-25T03:28:53.721Z,101395.30
2018-11-25T03:31:21.446Z,101397.03
2018-11-25T03:33:49.166Z,101396.17
2018-11-25T03:36:16.915Z,101398.03
2018-11-25T03:38:44.634Z,101397.27
2018-11-25T03:41:12.345Z,101391.66
2018-11-25T03:43:40.053Z,101388.79
2018-11-25T03:46:08.618Z,101392.71
2018-11-25T03:48:36.782Z,101389.69
2018-11-25T03:51:04.760Z,101386.41
2018-11-25T03:53:32.591Z,101388.69
2018-11-25T03:56:00.381Z,101387.42
2018-11-25T03:58:28.150Z,101384.20
2018-11-25T04:00:55.922Z,101390.33
2018-11-25T04:03:23.632Z,101386.13
2018-11-25T04:05:51.409Z,101394.09
2018-11-25T04:08:19.519Z,101383.89
2018-11-25T04:10:47.205Z,101390.05
2018-11-25T04:13:14.910Z,101392.57
2018-11-25T04:15:42.619Z,101384.96
2018-11-25T04:18:10.329Z,101394.70
2018-11-25T04:20:38.067Z,101386.26
2018-11-25T04:23:05.888Z,101387.00
2018-11-25T04:25:33.647Z,101386.19
2018-11-25T04:28:01.342Z,101386.67
2018-11-25T04:30:29.085Z,101389.70
2018-11-25T04:32:56.828Z,101392.36
2018-11-25T04:35:24.578Z,101391.28
2018-11-25T04:37:52.306Z,101394.90
2018-11-25T04:40:20.058Z,101389.02
2018-11-25T04:42:47.812Z,101394.98
2018-11-25T04:45:16.442Z,101397.44
2018-11-25T04:47:44.782Z,101396.68
2018-11-25T04:50:17.418Z,101395.46
2018-11-25T04:52:45.228Z,101387.56
2018-11-25T04:55:13.185Z,101373.95
2018-11-25T04:57:40.995Z,101374.49
2018-11-25T05:00:11.028Z,101377.72
2018-11-25T05:02:39.188Z,101375.27
2018-11-25T05:05:09.166Z,101371.82
2018-11-25T05:07:36.928Z,101366.84
2018-11-25T05:10:06.521Z,101370.25
2018-11-25T05:12:34.335Z,101369.28
2018-11-25T05:15:02.099Z,101376.39
2018-11-25T05:17:30.246Z,101378.20
2018-11-25T05:19:57.567Z,101370.38
2018-11-25T05:22:25.311Z,101373.83
2018-11-25T05:24:53.034Z,101374.03
2018-11-25T05:27:20.783Z,101374.11
2018-11-25T05:29:48.566Z,101372.24
2018-11-25T05:32:16.323Z,101376.75
2018-11-25T05:34:44.036Z,101376.70
2018-11-25T05:37:11.807Z,101380.73
2018-11-25T05:39:39.531Z,101381.13
2018-11-25T05:42:07.274Z,101373.47
2018-11-25T05:44:35.003Z,101383.66
2018-11-25T05:47:02.824Z,101380.23
2018-11-25T05:49:36.385Z,101386.73
2018-11-25T05:51:58.397Z,101380.66
2018-11-25T05:54:26.115Z,101382.00
2018-11-25T05:56:54.019Z,101386.53
2018-11-25T05:59:21.783Z,101390.63
2018-11-25T06:01:49.539Z,101387.81
2018-11-25T06:04:17.349Z,101395.09
2018-11-25T06:06:45.135Z,101399.69
2018-11-25T06:09:12.854Z,101398.31
2018-11-25T06:11:40.621Z,101392.48
2018-11-25T06:14:08.366Z,101393.44
2018-11-25T06:16:36.092Z,101392.71
2018-11-25T06:19:04.028Z,101396.94
2018-11-25T06:21:31.749Z,101398.50
2018-11-25T06:23:59.544Z,101397.78
2018-11-25T06:26:27.262Z,101392.91
2018-11-25T06:28:55.005Z,101393.73
2018-11-25T06:31:22.803Z,101392.63
2018-11-25T06:33:50.680Z,101395.32
2018-11-25T06:36:18.423Z,101397.06
2018-11-25T06:38:46.174Z,101397.59
2018-11-25T06:41:13.879Z,101400.77
2018-11-25T06:43:41.678Z,101410.64
2018-11-25T06:46:11.694Z,101405.92
2018-11-25T06:48:39.421Z,101411.17
2018-11-25T06:51:07.155Z,101409.59
2018-11-25T06:53:34.884Z,101415.48
2018-11-25T06:56:02.663Z,101413.90
2018-11-25T06:58:30.342Z,101419.30
2018-11-25T07:00:58.176Z,101413.01
2018-11-25T07:03:25.928Z,101422.23
2018-11-25T07:05:53.657Z,101424.11
2018-11-25T07:08:21.421Z,101417.92
2018-11-25T07:10:49.167Z,101421.83
2018-11-25T07:13:16.879Z,101429.72
2018-11-25T07:15:44.638Z,101425.81
2018-11-25T07:18:12.399Z,101430.17
2018-11-25T07:20:40.134Z,101433.83
2018-11-25T07:23:07.853Z,101433.99
2018-11-25T07:25:35.650Z,101433.33
2018-11-25T07:28:18.002Z,101442.01
2018-11-25T07:30:31.234Z,101440.58
2018-11-25T07:32:58.994Z,101441.67
2018-11-25T07:35:27.500Z,101443.98
2018-11-25T07:37:55.294Z,101442.30
2018-11-25T07:40:23.828Z,101448.78
2018-11-25T07:42:51.606Z,101445.69
2018-11-25T07:45:30.250Z,101458.10
2018-11-25T07:47:51.344Z,101447.28
2018-11-25T07:50:19.148Z,101449.42
2018-11-25T07:52:47.597Z,101449.41
2018-11-25T07:55:18.402Z,101452.75
2018-11-25T07:57:46.523Z,101452.75
2018-11-25T08:00:16.185Z,101448.23
2018-11-25T08:02:43.985Z,101447.85
2018-11-25T08:05:14.675Z,101444.23
2018-11-25T08:07:42.467Z,101449.84
2018-11-25T08:10:15.068Z,101447.94
2018-11-25T08:12:42.981Z,101451.33
2018-11-25T08:15:20.606Z,101450.92
2018-11-25T08:17:48.418Z,101452.25
2018-11-25T08:20:17.150Z,101451.06
2018-11-25T08:22:44.954Z,101449.47
2018-11-25T08:25:14.726Z,101452.56
2018-11-25T08:27:42.615Z,101454.06
2018-11-25T08:30:17.381Z,101452.77
2018-11-25T08:32:45.226Z,101458.88
2018-11-25T08:35:13.858Z,101460.87
2018-11-25T08:37:41.739Z,101462.60
2018-11-25T08:40:13.390Z,101463.38
2018-11-25T08:42:41.252Z,101470.22
2018-11-25T08:45:10.294Z,101465.70
2018-11-25T08:47:38.110Z,101465.69
2018-11-25T08:50:13.020Z,101463.56
2018-11-25T08:52:41.140Z,101462.16
2018-11-25T08:55:15.012Z,101464.47
2018-11-25T08:57:42.822Z,101460.94
2018-11-25T09:00:18.453Z,101455.73
2018-11-25T09:02:46.392Z,101463.11
2018-11-25T09:05:14.893Z,101469.77
2018-11-25T09:07:42.683Z,101468.49
2018-11-25T09:10:12.450Z,101470.26
2018-11-25T09:12:40.254Z,101475.06
2018-11-25T09:15:09.978Z,101477.67
2018-11-25T09:17:37.718Z,101474.28
2018-11-25T09:20:07.823Z,101474.34
2018-11-25T09:22:35.575Z,101479.66
2018-11-25T09:25:03.471Z,101479.60
2018-11-25T09:27:31.233Z,101473.41
2018-11-25T09:29:58.947Z,101478.81
2018-11-25T09:32:26.716Z,101479.17
2018-11-25T09:34:54.471Z,101480.36
2018-11-25T09:37:22.207Z,101479.26
2018-11-25T09:39:49.942Z,101481.60
2018-11-25T09:42:17.721Z,101487.83
2018-11-25T09:44:45.469Z,101495.84
2018-11-25T09:47:13.188Z,101486.74
2018-11-25T09:49:40.950Z,101487.42
2018-11-25T09:52:08.708Z,101489.77
2018-11-25T09:54:36.431Z,101481.71
2018-11-25T09:57:04.251Z,101487.22
2018-11-25T09:59:32.386Z,101482.91
2018-11-25T10:02:00.104Z,101481.25
2018-11-25T10:04:27.825Z,101483.86
2018-11-25T10:06:55.603Z,101489.04
2018-11-25T10:09:23.369Z,101486.25
2018-11-25T10:11:51.072Z,101483.73
2018-11-25T10:14:18.853Z,101481.84
2018-11-25T10:16:46.599Z,101482.23
2018-11-25T10:19:14.341Z,101488.05
2018-11-25T10:21:42.085Z,101483.75
2018-11-25T10:24:09.877Z,101486.17
2018-11-25T10:26:37.609Z,101493.86
2018-11-25T10:29:05.373Z,101491.78
2018-11-25T10:31:33.142Z,101492.09
2018-11-25T10:34:00.875Z,101495.99
2018-11-25T10:36:28.656Z,101485.75
2018-11-25T10:38:56.375Z,101478.16
2018-11-25T10:41:24.177Z,101479.38
2018-11-25T10:43:51.908Z,101474.94
2018-11-25T10:46:19.655Z,101484.67
2018-11-25T10:48:47.522Z,101473.84
2018-11-25T10:51:15.245Z,101486.27
2018-11-25T10:53:43.082Z,101484.96
2018-11-25T10:56:10.877Z,101474.34
2018-11-25T10:58:38.602Z,101482.78
2018-11-25T11:01:11.888Z,101492.91
2018-11-25T11:03:45.157Z,101484.19
2018-11-25T11:06:18.799Z,101481.38
2018-11-25T11:08:46.576Z,101479.79
2018-11-25T11:11:14.341Z,101486.40
2018-11-25T11:13:42.063Z,101483.97
2018-11-25T11:16:09.940Z,101480.48
2018-11-25T11:18:37.719Z,101473.16
2018-11-25T11:21:05.842Z,101478.88
2018-11-25T11:23:33.655Z,101475.05
2018-11-25T11:26:06.674Z,101476.97
2018-11-25T11:28:29.313Z,101483.88
2018-11-25T11:30:57.139Z,101481.67
2018-11-25T11:33:24.967Z,101478.98
2018-11-25T11:35:52.764Z,101478.78
2018-11-25T11:38:20.608Z,101476.47
2018-11-25T11:40:48.451Z,101472.65
2018-11-25T11:43:16.234Z,101477.69
2018-11-25T11:45:43.974Z,101474.65
2018-11-25T11:48:11.694Z,101472.14
2018-11-25T11:50:39.450Z,101479.05
2018-11-25T11:53:07.243Z,101472.65
2018-11-25T11:55:35.039Z,101476.75
2018-11-25T11:58:02.839Z,101478.08
2018-11-25T12:00:31.268Z,101474.75
2018-11-25T12:02:59.549Z,101478.86
2018-11-25T12:05:28.361Z,101471.64
2018-11-25T12:07:56.105Z,101477.34
2018-11-25T12:10:24.825Z,101472.23
2018-11-25T12:12:52.738Z,101472.66
2018-11-25T12:15:30.439Z,101482.38
2018-11-25T12:17:51.905Z,101473.44
2018-11-25T12:20:21.427Z,101472.55
2018-11-25T12:22:48.728Z,101470.84
2018-11-25T12:25:17.274Z,101476.84
2018-11-25T12:27:45.283Z,101466.55
2018-11-25T12:30:14.085Z,101467.42
2018-11-25T12:32:42.479Z,101460.68
2018-11-25T12:35:11.366Z,101454.75
2018-11-25T12:37:39.149Z,101454.34
2018-11-25T12:40:10.278Z,101447.52
2018-11-25T12:42:38.067Z,101437.14
2018-11-25T12:45:08.600Z,101440.77
2018-11-25T12:47:36.388Z,101435.89
2018-11-25T12:50:04.331Z,101436.80
2018-11-25T12:52:32.202Z,101432.11
2018-11-25T12:55:00.030Z,101437.25
2018-11-25T12:57:27.966Z,101426.70
2018-11-25T12:59:55.794Z,101427.00
2018-11-25T13:02:23.569Z,101422.90
2018-11-25T13:04:51.403Z,101412.16
2018-11-25T13:07:19.271Z,101403.86
2018-11-25T13:09:47.058Z,101411.45
2018-11-25T13:12:14.860Z,101405.95
2018-11-25T13:14:42.637Z,101405.16
2018-11-25T13:17:10.519Z,101404.28
2018-11-25T13:19:38.425Z,101407.19
2018-11-25T13:22:06.053Z,101409.84
2018-11-25T13:24:34.530Z,101411.92
2018-11-25T13:27:02.302Z,101414.64
2018-11-25T13:29:29.979Z,101414.05
2018-11-25T13:31:57.698Z,101416.17
2018-11-25T13:34:25.410Z,101409.09
2018-11-25T13:36:53.149Z,101410.39
2018-11-25T13:39:20.915Z,101412.70
2018-11-25T13:41:48.665Z,101412.70
2018-11-25T13:44:16.418Z,101404.88
2018-11-25T13:46:44.196Z,101414.48
2018-11-25T13:49:11.908Z,101414.19
2018-11-25T13:51:39.718Z,101406.47
2018-11-25T13:54:07.491Z,101408.26
2018-11-25T13:56:35.276Z,101402.73
2018-11-25T13:59:03.091Z,101404.74
2018-11-25T14:01:31.706Z,101409.44
2018-11-25T14:03:59.442Z,101407.66
2018-11-25T14:06:27.170Z,101403.22
2018-11-25T14:08:55.097Z,101406.24
2018-11-25T14:11:22.855Z,101405.34
2018-11-25T14:13:50.545Z,101414.08
2018-11-25T14:16:20.408Z,101415.31
2018-11-25T14:18:48.165Z,101415.97
2018-11-25T14:21:16.034Z,101412.58
2018-11-25T14:23:43.826Z,101402.38
2018-11-25T14:26:21.551Z,101402.20
2018-11-25T14:28:50.224Z,101405.34
2018-11-25T14:31:17.957Z,101409.86
2018-11-25T14:33:45.699Z,101409.27
2018-11-25T14:36:13.633Z,101412.70
2018-11-25T14:38:41.358Z,101409.20
2018-11-25T14:41:09.096Z,101412.13
2018-11-25T14:43:36.882Z,101418.17
2018-11-25T14:46:04.741Z,101417.98
2018-11-25T14:48:32.617Z,101408.12
2018-11-25T14:51:00.321Z,101409.39
2018-11-25T14:53:28.062Z,101410.10
2018-11-25T14:55:55.806Z,101410.87
2018-11-25T14:58:23.639Z,101414.89
2018-11-25T15:00:51.371Z,101411.39
2018-11-25T15:03:19.098Z,101409.50
2018-11-25T15:05:47.811Z,101405.29
2018-11-25T15:08:17.377Z,101420.59
2018-11-25T15:10:45.126Z,101418.11
2018-11-25T15:13:13.022Z,101418.03
2018-11-25T15:15:40.831Z,101414.23
2018-11-25T15:18:09.123Z,101416.50
2018-11-25T15:20:36.946Z,101418.17
2018-11-25T15:23:07.367Z,101407.67
2018-11-25T15:25:36.955Z,101413.13
2018-11-25T15:28:05.341Z,101411.58
2018-11-25T15:30:33.895Z,101416.79
2018-11-25T15:33:01.752Z,101414.18
2018-11-25T15:35:29.664Z,101418.88
2018-11-25T15:37:57.794Z,101416.09
2018-11-25T15:40:28.845Z,101418.23
2018-11-25T15:42:56.732Z,101424.70
2018-11-25T15:45:24.515Z,101419.59
2018-11-25T15:47:57.676Z,101421.59
2018-11-25T15:50:26.944Z,101416.14
2018-11-25T15:52:55.106Z,101411.86
2018-11-25T15:55:22.979Z,101413.89
2018-11-25T15:57:51.709Z,101424.92
2018-11-25T16:00:19.762Z,101432.52
2018-11-25T16:02:47.730Z,101433.57
2018-11-25T16:05:20.885Z,101429.77
2018-11-25T16:07:48.698Z,101428.84
2018-11-25T16:10:17.242Z,101428.53
2018-11-25T16:12:47.243Z,101434.94
2018-11-25T16:15:16.260Z,101435.83
2018-11-25T16:17:44.069Z,101431.22
2018-11-25T16:20:15.825Z,101434.30
2018-11-25T16:22:43.869Z,101437.48
2018-11-25T16:25:18.851Z,101440.64
2018-11-25T16:27:47.273Z,101442.06
2018-11-25T16:30:15.073Z,101443.14
2018-11-25T16:32:43.456Z,101441.94
2018-11-25T16:35:11.447Z,101441.66
2018-11-25T16:37:40.279Z,101430.30
2018-11-25T16:40:12.931Z,101431.80
2018-11-25T16:42:40.850Z,101428.71
2018-11-25T16:45:16.020Z,101437.50
2018-11-25T16:47:44.538Z,101430.02
2018-11-25T16:50:14.437Z,101433.34
2018-11-25T16:52:42.246Z,101435.36
2018-11-25T16:55:10.980Z,101429.66
2018-11-25T16:57:38.893Z,101432.86
2018-11-25T17:00:09.832Z,101440.09
2018-11-25T17:02:37.547Z,101437.90
2018-11-25T17:05:10.219Z,101430.85
2018-11-25T17:07:38.165Z,101440.69
2018-11-25T17:10:08.391Z,101433.76
2018-11-25T17:12:36.187Z,101439.57
2018-11-25T17:15:05.591Z,101439.91
2018-11-25T17:17:33.301Z,101435.77
2018-11-25T17:20:01.026Z,101434.17
2018-11-25T17:22:29.486Z,101435.30
2018-11-25T17:24:57.253Z,101431.45
2018-11-25T17:27:25.042Z,101426.75
2018-11-25T17:29:52.887Z,101425.62
2018-11-25T17:32:20.764Z,101424.98
2018-11-25T17:34:48.580Z,101422.96
2018-11-25T17:37:16.277Z,101423.39
2018-11-25T17:39:43.997Z,101420.53
2018-11-25T17:42:11.756Z,101425.90
2018-11-25T17:44:39.512Z,101430.78
2018-11-25T17:47:07.250Z,101431.67
2018-11-25T17:49:35.754Z,101428.99
2018-11-25T17:52:03.556Z,101425.79
2018-11-25T17:54:31.365Z,101427.47
2018-11-25T17:56:59.152Z,101428.58
2018-11-25T17:59:26.971Z,101433.61
2018-11-25T18:01:54.744Z,101428.39
2018-11-25T18:04:22.466Z,101431.71
2018-11-25T18:06:50.339Z,101433.42
2018-11-25T18:09:18.111Z,101438.67
2018-11-25T18:11:45.911Z,101445.95
2018-11-25T18:14:13.631Z,101454.97
2018-11-25T18:16:41.463Z,101447.25
2018-11-25T18:19:27.477Z,101459.00
2018-11-25T18:22:00.434Z,101457.06
2018-11-25T18:24:28.254Z,101450.65
2018-11-25T18:26:55.989Z,101451.36
2018-11-25T18:29:23.766Z,101444.83
2018-11-25T18:31:51.511Z,101443.91
2018-11-25T18:34:19.287Z,101442.64
2018-11-25T18:36:47.155Z,101443.94
2018-11-25T18:39:14.884Z,101440.21
2018-11-25T18:41:42.662Z,101437.08
2018-11-25T18:44:10.396Z,101433.98
2018-11-25T18:46:46.303Z,101441.62
2018-11-25T18:49:08.713Z,101439.24
2018-11-25T18:51:36.466Z,101435.52
2018-11-25T18:54:04.906Z,101434.28
2018-11-25T18:56:32.646Z,101442.22
2018-11-25T18:59:00.391Z,101446.36
2018-11-25T19:01:49.088Z,101447.96
2018-11-25T19:04:16.921Z,101440.25
2018-11-25T19:06:44.732Z,101439.02
2018-11-25T19:09:12.431Z,101433.20
2018-11-25T19:11:40.186Z,101429.89
2018-11-25T19:14:07.926Z,101426.46
2018-11-25T19:16:35.670Z,101420.76
2018-11-25T19:19:03.450Z,101422.28
2018-11-25T19:21:31.174Z,101422.77
2018-11-25T19:23:58.866Z,101425.79
2018-11-25T19:26:26.567Z,101418.29
2018-11-25T19:28:54.321Z,101424.86
2018-11-25T19:31:22.071Z,101430.00
2018-11-25T19:33:49.866Z,101422.47
2018-11-25T19:36:17.572Z,101418.27
2018-11-25T19:38:45.335Z,101425.30
2018-11-25T19:41:13.087Z,101415.05
2018-11-25T19:43:40.773Z,101415.95
2018-11-25T19:46:08.526Z,101420.88
2018-11-25T19:48:36.330Z,101430.30
2018-11-25T19:51:04.178Z,101426.16
2018-11-25T19:53:31.899Z,101428.51
2018-11-25T19:55:59.606Z,101425.08
2018-11-25T19:58:27.343Z,101429.89
2018-11-25T20:00:55.090Z,101439.09
2018-11-25T20:03:22.865Z,101435.11
2018-11-25T20:05:50.614Z,101433.69
2018-11-25T20:08:18.395Z,101431.27
2018-11-25T20:10:46.172Z,101432.38
2018-11-25T20:13:13.923Z,101441.41
2018-11-25T20:15:41.642Z,101440.81
2018-11-25T20:18:09.711Z,101444.02
2018-11-25T20:20:37.457Z,101444.31
2018-11-25T20:23:06.015Z,101443.91
2018-11-25T20:25:34.008Z,101442.64
2018-11-25T20:28:01.739Z,101446.84
2018-11-25T20:30:31.243Z,101444.54
2018-11-25T20:33:04.908Z,101446.52
2018-11-25T20:35:32.679Z,101446.14
2018-11-25T20:40:06.781Z,101449.94
2018-11-25T20:42:34.538Z,101462.88
2018-11-25T20:45:02.308Z,101464.55
2018-11-25T20:47:30.127Z,101466.08
2018-11-25T20:49:57.939Z,101459.55
2018-11-25T20:52:31.071Z,101460.86
2018-11-25T20:54:58.836Z,101452.25
2018-11-25T20:57:26.563Z,101449.72
2018-11-25T20:59:54.274Z,101447.22
2018-11-25T21:02:28.953Z,101455.75
2018-11-25T21:04:49.795Z,101454.94
2018-11-25T21:07:17.504Z,101464.97
2018-11-25T21:09:45.270Z,101452.44
2018-11-25T21:12:13.035Z,101454.12
2018-11-25T21:14:40.883Z,101453.75
2018-11-25T21:17:08.647Z,101462.69
2018-11-25T21:19:36.454Z,101453.52
2018-11-25T21:22:04.460Z,101456.35
2018-11-25T21:24:32.407Z,101460.97
2018-11-25T21:27:00.148Z,101464.07
2018-11-25T21:29:27.830Z,101473.13
2018-11-25T21:31:56.643Z,101465.00
2018-11-25T21:34:24.438Z,101471.52
2018-11-25T21:36:52.220Z,101467.20
2018-11-25T21:39:20.076Z,101462.80
2018-11-25T21:41:47.796Z,101462.69
2018-11-25T21:44:15.510Z,101469.22
2018-11-25T21:46:43.285Z,101464.70
2018-11-25T21:49:11.091Z,101471.71
2018-11-25T21:51:38.849Z,101476.03
2018-11-25T21:54:06.635Z,101476.03
2018-11-25T21:56:34.485Z,101483.67
2018-11-25T21:59:02.213Z,101478.13
2018-11-25T22:01:29.962Z,101478.83
2018-11-25T22:03:57.670Z,101471.12
2018-11-25T22:06:25.375Z,101470.00
2018-11-25T22:08:53.142Z,101468.84
2018-11-25T22:11:20.885Z,101479.38
2018-11-25T22:13:48.581Z,101488.38
2018-11-25T22:16:16.346Z,101485.28
2018-11-25T22:18:44.091Z,101494.41
2018-11-25T22:21:11.844Z,101497.91
2018-11-25T22:23:39.564Z,101484.16
2018-11-25T22:26:07.323Z,101483.58
2018-11-25T22:28:35.026Z,101480.86
2018-11-25T22:31:02.788Z,101474.86
2018-11-25T22:33:30.543Z,101477.58
2018-11-25T22:35:58.281Z,101475.16
2018-11-25T22:38:25.988Z,101477.98
2018-11-25T22:40:53.853Z,101477.87
2018-11-25T22:43:21.608Z,101479.05
2018-11-25T22:45:49.349Z,101477.47
2018-11-25T22:48:17.117Z,101486.49
2018-11-25T22:50:44.820Z,101475.36
2018-11-25T22:53:12.593Z,101468.33
2018-11-25T22:55:40.317Z,101459.80
2018-11-25T22:58:08.147Z,101468.23
2018-11-25T23:00:36.650Z,101462.80
2018-11-25T23:03:04.483Z,101462.41
2018-11-25T23:06:08.340Z,101471.16
2018-11-25T23:08:36.085Z,101468.73
2018-11-25T23:11:03.860Z,101476.16
2018-11-25T23:13:31.587Z,101477.86
2018-11-25T23:15:59.322Z,101492.31
2018-11-25T23:18:27.109Z,101487.11
2018-11-25T23:20:54.848Z,101488.91
2018-11-25T23:23:22.636Z,101485.59
2018-11-25T23:25:50.517Z,101483.89
2018-11-25T23:28:18.245Z,101479.86
2018-11-25T23:30:45.993Z,101482.29
2018-11-25T23:33:13.768Z,101481.39
2018-11-25T23:35:41.554Z,101476.88
2018-11-25T23:38:09.345Z,101479.88
2018-11-25T23:40:37.099Z,101473.05
2018-11-25T23:43:05.102Z,101472.37
2018-11-25T23:45:32.865Z,101471.46
2018-11-25T23:48:00.672Z,101470.66
2018-11-25T23:50:28.412Z,101466.84
2018-11-25T23:52:56.177Z,101463.13
2018-11-25T23:55:23.915Z,101473.87
2018-11-25T23:57:51.732Z,101475.86
